Terminal Aerodrome Forecast
Issued by NWS

Home | Current Version | Previous Version | Text Only | Print | Product List | Glossary On
Versions: 1 2 3 4 5 6 7 8 9 10 11 12 13 14 15 16 17 18 19
847
FTUS42 KGSP 232320
TAFAND
TAF
KAND 232320Z 2400/2424 11005KT P6SM SCT060
      TEMPO 2405/2409 09003KT 4SM BR BKN060
     FM240900 09003KT 2SM BR BKN003
     FM241400 15005KT P6SM BKN008
     FM241600 16006KT P6SM BKN015
     FM242100 18008G17KT P6SM SCT200=

USA.gov is the U.S. government's official web portal to all federal, state and local government web resources and services.